Time;durP1;ratioP1;P1;durP2;ratioP2;P2;SDS_P1;SDS_P2;PMS_P1;PMS_P2;Temp;Humidity;BMP_temperature;BMP_pressure;BME280_temperature;BME280_humidity;BME280_pressure;Samples;Min_cycle;Max_cycle;Signal;HPM_P1;HPM_P2
2023/12/23 00:00:07;;;;;;;0.03;0.03;;;;;;;12.27;100.00;99445.38;7389142;19;20018;-84
2023/12/23 00:02:36;;;;;;;4.15;0.32;;;;;;;12.35;100.00;99452.03;7388987;19;20082;-84
2023/12/23 00:05:02;;;;;;;2.25;0.60;;;;;;;12.71;100.00;99445.66;7389498;19;20007;-85
2023/12/23 00:07:29;;;;;;;2.38;0.68;;;;;;;12.76;100.00;99437.28;7388911;19;20021;-85
2023/12/23 00:09:55;;;;;;;5.35;0.60;;;;;;;12.70;100.00;99441.31;7389096;19;20396;-84
2023/12/23 00:12:21;;;;;;;0.20;0.20;;;;;;;12.96;100.00;99441.97;7386804;19;20010;-85
2023/12/23 00:14:47;;;;;;;0.10;0.10;;;;;;;12.66;100.00;99440.78;7389333;19;20052;-85
2023/12/23 00:17:13;;;;;;;0.13;0.13;;;;;;;12.88;100.00;99452.09;7387934;19;20043;-86
2023/12/23 00:19:39;;;;;;;0.10;0.00;;;;;;;12.86;100.00;99437.84;7387285;19;20003;-86
2023/12/23 00:22:05;;;;;;;0.90;0.20;;;;;;;12.83;100.00;99438.84;7389154;19;20063;-84
2023/12/23 00:24:32;;;;;;;0.10;0.10;;;;;;;12.82;100.00;99437.34;7388504;19;19999;-85
2023/12/23 00:26:58;;;;;;;9.60;1.70;;;;;;;12.88;100.00;99443.72;7387082;19;20010;-84
2023/12/23 00:29:25;;;;;;;0.10;0.05;;;;;;;12.75;100.00;99435.78;7389260;19;20018;-84
2023/12/23 00:31:51;;;;;;;0.30;0.20;;;;;;;12.74;100.00;99433.47;7387635;19;20345;-84
2023/12/23 00:34:17;;;;;;;1.00;0.95;;;;;;;13.11;100.00;99425.78;7386809;19;20468;-82
2023/12/23 00:36:44;;;;;;;0.10;0.00;;;;;;;12.89;100.00;99422.88;7386953;19;20453;-86
2023/12/23 00:39:10;;;;;;;0.30;0.10;;;;;;;13.00;100.00;99414.53;7386617;19;20042;-84
2023/12/23 00:41:37;;;;;;;0.28;0.10;;;;;;;12.99;100.00;99407.44;7386854;19;20010;-85
2023/12/23 00:44:03;;;;;;;0.85;0.47;;;;;;;13.06;100.00;99415.34;7387175;19;20612;-84
2023/12/23 00:46:30;;;;;;;1.58;1.05;;;;;;;13.03;100.00;99393.19;7387607;19;20428;-85
2023/12/23 00:48:56;;;;;;;0.55;0.30;;;;;;;13.01;100.00;99398.53;7387987;19;20007;-85
2023/12/23 00:51:22;;;;;;;0.80;0.52;;;;;;;12.82;100.00;99409.38;7385891;19;20027;-84
2023/12/23 00:53:49;;;;;;;0.90;0.63;;;;;;;12.68;100.00;99407.53;7387091;19;20471;-84
2023/12/23 00:56:21;;;;;;;2.17;0.20;;;;;;;12.86;100.00;99404.31;7389252;19;20015;-84
2023/12/23 00:58:48;;;;;;;0.10;0.10;;;;;;;12.86;100.00;99407.13;7389477;19;20010;-84
2023/12/23 01:01:15;;;;;;;0.10;0.10;;;;;;;12.79;100.00;99415.97;7387877;19;20010;-85
2023/12/23 01:03:45;;;;;;;0.10;0.10;;;;;;;12.87;100.00;99417.00;7385734;19;20015;-85
2023/12/23 01:06:11;;;;;;;0.00;0.00;;;;;;;13.00;100.00;99416.56;7386462;19;20035;-84
2023/12/23 01:08:37;;;;;;;0.10;0.10;;;;;;;12.93;100.00;99418.56;7386854;19;20006;-84
2023/12/23 01:11:03;;;;;;;0.30;0.20;;;;;;;12.88;100.00;99412.97;7388174;19;20018;-88
2023/12/23 01:13:29;;;;;;;2.83;0.20;;;;;;;12.78;100.00;99420.03;7392590;19;20010;-86
2023/12/23 01:15:55;;;;;;;0.15;0.15;;;;;;;12.76;100.00;99422.56;7396709;19;20010;-85
2023/12/23 01:18:21;;;;;;;1.70;0.55;;;;;;;12.74;100.00;99422.28;7396276;19;20020;-85
2023/12/23 01:20:48;;;;;;;0.28;0.20;;;;;;;12.86;100.00;99410.66;7396503;19;20006;-85
2023/12/23 01:23:14;;;;;;;0.30;0.15;;;;;;;12.81;100.00;99417.00;7392837;19;20010;-86
2023/12/23 01:25:40;;;;;;;1.10;0.20;;;;;;;12.81;100.00;99413.44;7392732;19;20011;-86
2023/12/23 01:28:06;;;;;;;2.72;0.20;;;;;;;13.30;100.00;99409.31;7392913;19;20009;-85
2023/12/23 01:30:33;;;;;;;3.60;1.35;;;;;;;12.98;100.00;99405.88;7394720;19;20019;-86
2023/12/23 01:33:00;;;;;;;0.43;0.35;;;;;;;13.07;100.00;99408.50;7393737;19;20078;-86
2023/12/23 01:35:27;;;;;;;0.43;0.35;;;;;;;13.02;100.00;99406.41;7392412;19;20410;-85
2023/12/23 01:37:53;;;;;;;0.20;0.10;;;;;;;13.45;100.00;99402.22;7393900;19;20002;-85
2023/12/23 01:40:20;;;;;;;0.10;0.00;;;;;;;13.09;100.00;99399.59;7392288;19;20014;-85
2023/12/23 01:42:47;;;;;;;2.55;0.28;;;;;;;12.95;100.00;99395.69;7393900;19;20010;-85
2023/12/23 01:45:13;;;;;;;0.10;0.08;;;;;;;12.94;100.00;99389.38;7392157;19;20002;-85
2023/12/23 01:47:46;;;;;;;0.10;0.00;;;;;;;12.95;100.00;99378.94;7391135;19;20006;-85
2023/12/23 01:50:13;;;;;;;0.10;0.10;;;;;;;13.07;100.00;99380.53;7394348;19;20014;-85
2023/12/23 01:52:40;;;;;;;0.10;0.00;;;;;;;12.91;100.00;99384.00;7392922;19;20726;-85
2023/12/23 01:55:08;;;;;;;0.70;0.10;;;;;;;12.80;100.00;99373.53;7393553;19;20013;-85
2023/12/23 01:57:34;;;;;;;0.10;0.10;;;;;;;12.78;100.00;99380.91;7391508;19;20018;-84
2023/12/23 02:00:01;;;;;;;0.10;0.10;;;;;;;12.79;100.00;99383.22;7392975;19;20010;-85
2023/12/23 02:02:28;;;;;;;1.27;0.20;;;;;;;12.73;100.00;99376.06;7390958;19;20018;-85
2023/12/23 02:04:56;;;;;;;0.10;0.10;;;;;;;12.74;100.00;99381.16;7392440;19;20108;-84
2023/12/23 02:07:22;;;;;;;0.35;0.35;;;;;;;12.76;100.00;99389.03;7392692;19;20039;-87
2023/12/23 02:09:48;;;;;;;0.00;0.00;;;;;;;12.86;100.00;99387.56;7392570;19;20015;-88
2023/12/23 02:12:19;;;;;;;0.10;0.10;;;;;;;12.86;100.00;99387.56;7395915;19;20014;-89
2023/12/23 02:14:47;;;;;;;;;;;;;;;12.97;100.00;99395.22;7395290;19;20018;-89
2023/12/23 02:17:13;;;;;;;0.10;0.08;;;;;;;12.93;100.00;99382.22;7394790;19;19931;-89
2023/12/23 02:19:39;;;;;;;0.22;0.22;;;;;;;13.03;100.00;99385.59;7394692;19;20089;-88
2023/12/23 02:22:05;;;;;;;1.75;0.45;;;;;;;28.28;78.01;99349.06;7394847;19;20015;-88
2023/12/23 02:24:33;;;;;;;0.10;0.00;;;;;;;35.51;39.41;99322.50;7395079;19;20043;-88
2023/12/23 02:27:04;;;;;;;0.95;0.40;;;;;;;37.39;32.94;99332.91;7392987;19;20007;-89
2023/12/23 02:29:31;;;;;;;0.10;0.10;;;;;;;38.08;30.47;99332.84;7393382;19;20006;-88
2023/12/23 02:31:59;;;;;;;0.10;0.10;;;;;;;38.49;28.86;99330.44;7392371;19;20097;-89
2023/12/23 02:34:27;;;;;;;0.10;0.05;;;;;;;38.79;28.17;99318.16;7391944;19;20036;-89
2023/12/23 02:36:54;;;;;;;0.90;0.43;;;;;;;38.94;26.94;99320.00;7393418;19;20006;-89
2023/12/23 02:39:20;;;;;;;1.27;0.15;;;;;;;38.87;27.13;99324.19;7390182;19;20006;-89
2023/12/23 02:41:46;;;;;;;2.97;0.65;;;;;;;39.13;26.27;99325.63;7392315;19;20012;-89
2023/12/23 02:44:13;;;;;;;0.20;0.10;;;;;;;39.13;26.02;99339.44;7390991;19;20007;-89
2023/12/23 02:46:39;;;;;;;0.10;0.10;;;;;;;38.81;25.50;99329.84;7390052;19;20014;-88
2023/12/23 02:49:05;;;;;;;0.00;0.00;;;;;;;38.65;25.97;99330.88;7392919;19;20014;-89
2023/12/23 02:51:31;;;;;;;0.00;0.00;;;;;;;38.31;26.09;99329.22;7392146;19;20010;-90
2023/12/23 02:53:57;;;;;;;0.43;0.20;;;;;;;38.42;25.97;99334.59;7392987;19;20014;-88
2023/12/23 02:56:24;;;;;;;0.10;0.00;;;;;;;38.37;25.81;99349.75;7390167;19;20009;-89
2023/12/23 02:58:50;;;;;;;0.20;0.20;;;;;;;41.92;23.72;99322.94;7391608;19;20010;-89
2023/12/23 03:01:19;;;;;;;15.70;0.77;;;;;;;43.09;22.52;99330.09;7391313;19;20007;-88
2023/12/23 03:03:45;;;;;;;6.10;0.47;;;;;;;43.65;22.21;99333.50;7392239;19;20015;-87
2023/12/23 03:06:14;;;;;;;0.10;0.00;;;;;;;43.96;21.62;99317.50;7390149;19;20010;-87
2023/12/23 03:08:41;;;;;;;0.10;0.00;;;;;;;44.16;21.57;99320.53;7391657;19;20457;-86
2023/12/23 03:11:08;;;;;;;0.10;0.10;;;;;;;44.36;21.27;99317.66;7390920;19;20378;-85
2023/12/23 03:13:34;;;;;;;0.10;0.00;;;;;;;44.27;21.46;99316.16;7388711;19;20608;-86
2023/12/23 03:16:00;;;;;;;0.80;0.30;;;;;;;41.79;23.01;99312.53;7391437;19;20115;-86
2023/12/23 03:18:26;;;;;;;0.10;0.00;;;;;;;44.22;21.52;99300.03;7389452;19;20014;-86
2023/12/23 03:20:52;;;;;;;0.10;0.00;;;;;;;44.52;21.01;99295.69;7389595;19;20013;-85
2023/12/23 03:23:19;;;;;;;0.25;0.25;;;;;;;44.55;20.63;99291.31;7388450;19;20014;-85
2023/12/23 03:25:45;;;;;;;0.10;0.00;;;;;;;43.92;21.10;99282.28;7390588;19;20006;-86
2023/12/23 03:28:11;;;;;;;0.00;0.00;;;;;;;44.31;21.18;99292.69;7389674;19;20337;-86
2023/12/23 03:30:37;;;;;;;0.10;0.08;;;;;;;44.19;20.77;99298.53;7389505;19;20018;-86
2023/12/23 03:33:03;;;;;;;0.10;0.10;;;;;;;44.02;21.09;99275.69;7390365;19;20006;-86
2023/12/23 03:35:29;;;;;;;0.10;0.00;;;;;;;44.25;20.62;99272.13;7387859;19;20018;-85
2023/12/23 03:37:55;;;;;;;0.47;0.25;;;;;;;44.13;20.62;99274.28;7390004;19;20006;-86
2023/12/23 03:40:21;;;;;;;0.10;0.10;;;;;;;44.73;20.92;99276.59;7388287;19;19999;-86
2023/12/23 03:42:47;;;;;;;0.10;0.00;;;;;;;45.12;20.24;99289.84;7390582;19;20014;-86
2023/12/23 03:45:13;;;;;;;0.50;0.20;;;;;;;44.71;20.21;99280.28;7390380;19;20082;-85
2023/12/23 03:47:41;;;;;;;0.10;0.10;;;;;;;45.08;19.98;99283.97;7391331;19;20053;-85
2023/12/23 03:50:07;;;;;;;0.10;0.10;;;;;;;45.11;19.82;99286.19;7389774;19;20034;-85
2023/12/23 03:52:33;;;;;;;0.10;0.00;;;;;;;45.42;19.45;99295.72;7388625;19;19999;-86
2023/12/23 03:54:59;;;;;;;0.20;0.15;;;;;;;45.69;19.37;99300.09;7389633;19;20002;-86
2023/12/23 03:57:25;;;;;;;3.00;0.50;;;;;;;46.06;19.17;99303.66;7388493;19;20088;-86
2023/12/23 03:59:51;;;;;;;0.10;0.10;;;;;;;45.99;18.98;99286.75;7391447;19;20019;-86
2023/12/23 04:02:17;;;;;;;0.10;0.10;;;;;;;45.80;18.92;99283.13;7388469;19;20022;-83
2023/12/23 04:04:43;;;;;;;0.10;0.00;;;;;;;36.72;23.38;99287.13;7390908;19;20011;-87
2023/12/23 04:07:10;;;;;;;0.10;0.00;;;;;;;39.66;23.25;99272.19;7391786;19;20496;-86
2023/12/23 04:09:36;;;;;;;0.10;0.00;;;;;;;20.40;53.66;99301.44;7387876;19;20460;-87
2023/12/23 04:12:02;;;;;;;0.03;0.00;;;;;;;16.50;100.00;99316.63;7388257;19;20015;-86
2023/12/23 04:14:29;;;;;;;0.47;0.45;;;;;;;15.27;100.00;99318.25;7388596;19;20026;-87
2023/12/23 04:16:55;;;;;;;0.10;0.00;;;;;;;14.80;100.00;99304.25;7388686;19;20037;-87
2023/12/23 04:19:21;;;;;;;1.88;0.10;;;;;;;14.49;100.00;99304.63;7387672;19;20006;-87
2023/12/23 04:21:47;;;;;;;0.47;0.47;;;;;;;14.40;100.00;99314.09;7388844;19;20014;-87
2023/12/23 04:24:13;;;;;;;0.20;0.20;;;;;;;14.32;100.00;99301.16;7388022;19;20084;-87
2023/12/23 04:26:40;;;;;;;1.48;0.63;;;;;;;14.23;100.00;99304.19;7390332;19;20079;-88
2023/12/23 04:29:06;;;;;;;0.03;0.03;;;;;;;14.22;100.00;99294.28;7388919;19;20015;-87
2023/12/23 04:31:32;;;;;;;0.30;0.30;;;;;;;14.16;100.00;99291.47;7388926;19;20049;-88
2023/12/23 04:33:58;;;;;;;1.10;0.52;;;;;;;14.16;100.00;99296.34;7388812;19;20010;-87
2023/12/23 04:36:25;;;;;;;0.75;0.35;;;;;;;14.13;100.00;99291.75;7387474;19;20010;-87
2023/12/23 04:38:51;;;;;;;2.28;0.13;;;;;;;14.06;100.00;99297.88;7391180;19;20006;-88
2023/12/23 04:41:18;;;;;;;1.60;0.65;;;;;;;14.07;100.00;99305.03;7387966;19;20484;-84
2023/12/23 04:43:44;;;;;;;0.20;0.20;;;;;;;14.11;100.00;99302.72;7389372;19;20067;-87
2023/12/23 04:46:10;;;;;;;3.40;0.63;;;;;;;14.01;100.00;99316.22;7390514;19;20010;-87
2023/12/23 04:48:36;;;;;;;0.10;0.08;;;;;;;13.97;100.00;99298.19;7396500;19;20020;-87
2023/12/23 04:51:02;;;;;;;0.57;0.57;;;;;;;13.95;100.00;99311.91;7397549;19;20022;-88
2023/12/23 04:53:28;;;;;;;1.75;0.68;;;;;;;13.92;100.00;99312.94;7394699;19;20341;-87
2023/12/23 04:55:56;;;;;;;0.03;0.00;;;;;;;13.90;100.00;99298.69;7396047;19;20011;-87
2023/12/23 04:58:22;;;;;;;0.13;0.05;;;;;;;13.90;100.00;99301.50;7394982;19;20011;-87
2023/12/23 05:00:48;;;;;;;0.20;0.20;;;;;;;14.00;100.00;99302.75;7396587;19;20009;-87
2023/12/23 05:03:14;;;;;;;0.45;0.40;;;;;;;14.00;100.00;99302.75;7395682;19;20003;-87
2023/12/23 05:05:41;;;;;;;0.22;0.15;;;;;;;13.99;100.00;99313.16;7394676;19;20536;-87
2023/12/23 05:08:07;;;;;;;0.10;0.00;;;;;;;14.05;100.00;99293.56;7395947;19;20041;-88
2023/12/23 05:10:34;;;;;;;0.70;0.52;;;;;;;14.12;100.00;99298.66;7395731;19;20408;-88
2023/12/23 05:13:01;;;;;;;0.10;0.10;;;;;;;14.18;100.00;99314.16;7394960;19;20003;-88
2023/12/23 05:15:27;;;;;;;0.10;0.00;;;;;;;14.20;100.00;99310.84;7394847;19;20066;-88
2023/12/23 05:17:53;;;;;;;0.10;0.00;;;;;;;14.14;100.00;99296.09;7395394;19;20017;-88
2023/12/23 05:20:20;;;;;;;0.10;0.00;;;;;;;14.13;100.00;99300.16;7395046;19;20022;-87
2023/12/23 05:22:46;;;;;;;1.88;0.40;;;;;;;14.10;100.00;99292.78;7394441;19;20010;-88
2023/12/23 05:25:12;;;;;;;0.13;0.13;;;;;;;14.06;100.00;99290.25;7395465;19;20039;-85
2023/12/23 05:27:39;;;;;;;0.10;0.00;;;;;;;14.05;100.00;99291.53;7392872;19;20014;-85
2023/12/23 05:30:06;;;;;;;0.55;0.32;;;;;;;14.04;100.00;99275.22;7393325;19;20466;-86
2023/12/23 05:32:32;;;;;;;0.10;0.10;;;;;;;14.05;100.00;99271.16;7392104;19;20467;-86
2023/12/23 05:34:58;;;;;;;0.10;0.00;;;;;;;22.09;88.04;99268.84;7394096;19;20014;-85
2023/12/23 05:37:24;;;;;;;5.68;1.05;;;;;;;12.23;100.00;99286.47;7393916;19;20750;-85
2023/12/23 05:39:50;;;;;;;0.30;0.30;;;;;;;12.44;100.00;99284.28;7394359;19;20015;-85
2023/12/23 05:42:16;;;;;;;1.70;0.60;;;;;;;18.67;100.00;99269.50;7392376;19;20472;-85
2023/12/23 05:44:42;;;;;;;0.10;0.00;;;;;;;14.92;100.00;99279.72;7391827;19;20011;-87
2023/12/23 05:47:08;;;;;;;0.28;0.13;;;;;;;10.53;100.00;99262.28;7392833;19;20055;-86
2023/12/23 05:49:35;;;;;;;1.65;0.45;;;;;;;9.77;100.00;99266.34;7391971;19;20015;-85
2023/12/23 05:52:01;;;;;;;0.00;0.00;;;;;;;9.70;100.00;99275.13;7393857;19;20013;-84
2023/12/23 05:54:27;;;;;;;0.10;0.00;;;;;;;9.51;100.00;99284.91;7391172;19;20018;-88
2023/12/23 05:56:53;;;;;;;0.30;0.22;;;;;;;12.40;100.00;99275.38;7394491;19;20021;-85
2023/12/23 05:59:19;;;;;;;0.20;0.20;;;;;;;11.51;100.00;99288.03;7393130;19;20003;-85
2023/12/23 06:01:45;;;;;;;0.10;0.00;;;;;;;12.85;100.00;99285.41;7394500;19;20014;-86
2023/12/23 06:04:11;;;;;;;0.10;0.10;;;;;;;13.32;100.00;99304.06;7392160;19;20370;-87
2023/12/23 06:06:37;;;;;;;0.75;0.20;;;;;;;13.40;100.00;99296.72;7391470;19;20018;-85
2023/12/23 06:09:03;;;;;;;0.10;0.00;;;;;;;11.66;100.00;99300.56;7395566;19;20029;-86
2023/12/23 06:11:29;;;;;;;0.00;0.00;;;;;;;10.40;100.00;99298.06;7396465;19;20026;-87
2023/12/23 06:13:56;;;;;;;0.43;0.10;;;;;;;10.49;100.00;99306.28;7403906;19;20006;-86
2023/12/23 06:16:22;;;;;;;0.10;0.00;;;;;;;12.97;100.00;99302.97;7401666;19;20005;-86
2023/12/23 06:18:48;;;;;;;0.75;0.30;;;;;;;13.75;100.00;99320.59;7400903;19;20007;-86
2023/12/23 06:21:14;;;;;;;0.10;0.00;;;;;;;14.08;100.00;99314.94;7400588;19;20355;-87
2023/12/23 06:23:40;;;;;;;0.10;0.10;;;;;;;14.19;100.00;99312.09;7394272;19;20019;-87
2023/12/23 06:26:06;;;;;;;0.10;0.10;;;;;;;14.22;100.00;99302.69;7394342;19;20732;-85
2023/12/23 06:28:32;;;;;;;0.00;0.00;;;;;;;14.21;100.00;99318.72;7393741;19;20039;-86
2023/12/23 06:30:58;;;;;;;0.10;0.10;;;;;;;14.13;100.00;99302.97;7392146;19;20006;-87
2023/12/23 06:33:24;;;;;;;0.05;0.00;;;;;;;14.08;100.00;99298.13;7392034;19;20037;-86
2023/12/23 06:35:51;;;;;;;1.88;0.20;;;;;;;14.03;100.00;99307.31;7393228;19;20034;-86
2023/12/23 06:38:18;;;;;;;0.52;0.52;;;;;;;13.93;100.00;99311.66;7393149;19;20497;-85
2023/12/23 06:40:44;;;;;;;8.35;0.63;;;;;;;13.85;100.00;99313.44;7390553;19;20345;-86
2023/12/23 06:43:10;;;;;;;0.00;0.00;;;;;;;13.77;100.00;99320.84;7390622;19;20011;-86
2023/12/23 06:45:36;;;;;;;0.10;0.00;;;;;;;13.71;100.00;99320.09;7389542;19;20024;-87
2023/12/23 06:48:02;;;;;;;2.65;0.63;;;;;;;13.62;100.00;99324.66;7397869;19;20021;-87
2023/12/23 06:50:29;;;;;;;0.10;0.10;;;;;;;13.56;100.00;99326.69;7391120;19;20011;-86
2023/12/23 06:52:55;;;;;;;0.52;0.20;;;;;;;13.49;100.00;99332.78;7389481;19;20044;-86
2023/12/23 06:55:21;;;;;;;0.10;0.00;;;;;;;13.49;100.00;99343.97;7389750;19;20091;-86
2023/12/23 06:57:48;;;;;;;0.10;0.10;;;;;;;13.42;100.00;99344.50;7398021;19;20014;-86
2023/12/23 07:00:15;;;;;;;0.10;0.00;;;;;;;13.42;100.00;99327.72;7394993;19;20043;-86
2023/12/23 07:02:41;;;;;;;0.10;0.10;;;;;;;13.41;100.00;99342.97;7392358;19;20014;-87
2023/12/23 07:05:07;;;;;;;0.10;0.10;;;;;;;13.31;100.00;99327.72;7390218;19;20069;-87
2023/12/23 07:07:33;;;;;;;0.10;0.10;;;;;;;13.42;100.00;99350.09;7390326;19;20094;-87
2023/12/23 07:09:59;;;;;;;0.35;0.35;;;;;;;13.36;100.00;99340.91;7389318;19;20010;-88
2023/12/23 07:12:26;;;;;;;8.20;0.35;;;;;;;13.39;100.00;99323.13;7392424;19;20019;-87
2023/12/23 07:14:54;;;;;;;0.10;0.10;;;;;;;13.37;100.00;99320.09;7394645;19;20613;-89
2023/12/23 07:17:21;;;;;;;0.00;0.00;;;;;;;13.37;100.00;99320.09;7391274;19;20024;-88
2023/12/23 07:19:47;;;;;;;0.45;0.22;;;;;;;13.38;100.00;99316.00;7391406;19;20010;-88
2023/12/23 07:22:14;;;;;;;0.10;0.10;;;;;;;13.39;100.00;99317.53;7398712;19;20011;-88
2023/12/23 07:24:40;;;;;;;0.40;0.30;;;;;;;13.40;100.00;99310.69;7396371;19;20003;-87
2023/12/23 07:27:08;;;;;;;10.13;0.55;;;;;;;13.43;100.00;99306.09;7403604;19;20078;-87
2023/12/23 07:29:38;;;;;;;7.90;1.50;;;;;;;13.32;100.00;99304.06;7399328;19;20006;-87
2023/12/23 07:32:05;;;;;;;7.38;0.38;;;;;;;13.51;100.00;99295.94;7392400;19;20063;-88
2023/12/23 07:34:31;;;;;;;0.43;0.32;;;;;;;13.16;100.00;99293.63;7394108;19;20097;-88
2023/12/23 07:36:57;;;;;;;2.88;1.27;;;;;;;13.39;100.00;99289.56;7397069;19;20011;-88
2023/12/23 07:39:23;;;;;;;1.13;0.43;;;;;;;13.40;100.00;99285.53;7393812;19;20007;-87
2023/12/23 07:41:49;;;;;;;1.35;0.30;;;;;;;13.38;100.00;99293.63;7393393;19;20009;-87
2023/12/23 07:44:15;;;;;;;0.70;0.32;;;;;;;13.35;100.00;99289.06;7390998;19;19999;-86
2023/12/23 07:46:42;;;;;;;2.58;1.13;;;;;;;13.41;100.00;99275.84;7391693;19;20520;-90
2023/12/23 07:49:08;;;;;;;0.75;0.13;;;;;;;13.39;100.00;99283.97;7394134;19;20086;-88
2023/12/23 07:51:35;;;;;;;0.10;0.10;;;;;;;13.40;100.00;99285.53;7394265;19;20025;-88
2023/12/23 07:54:01;;;;;;;0.20;0.20;;;;;;;13.42;100.00;99288.56;7393324;19;20016;-88
2023/12/23 07:56:27;;;;;;;0.20;0.10;;;;;;;13.41;100.00;99284.22;7392676;19;19998;-87
2023/12/23 07:58:53;;;;;;;0.13;0.10;;;;;;;13.34;100.00;99286.78;7394413;19;20014;-86
2023/12/23 08:01:20;;;;;;;0.00;0.00;;;;;;;13.30;100.00;99291.84;7391689;19;20010;-87
2023/12/23 08:03:46;;;;;;;2.85;0.63;;;;;;;13.32;100.00;99281.69;7389376;19;20014;-88
2023/12/23 08:06:13;;;;;;;0.40;0.20;;;;;;;13.42;100.00;99280.19;7388994;19;20031;-88
2023/12/23 08:08:39;;;;;;;0.10;0.10;;;;;;;13.49;100.00;99288.03;7389154;19;20494;-85
2023/12/23 08:11:05;;;;;;;0.15;0.15;;;;;;;13.45;100.00;99284.72;7390302;19;20031;-86
2023/12/23 08:13:32;;;;;;;0.80;0.30;;;;;;;13.43;100.00;99284.47;7389759;19;20031;-86
2023/12/23 08:15:58;;;;;;;0.10;0.00;;;;;;;13.47;100.00;99281.44;7391715;19;20509;-86
2023/12/23 08:18:24;;;;;;;0.28;0.28;;;;;;;13.41;100.00;99284.22;7389933;19;20022;-86
2023/12/23 08:20:50;;;;;;;0.28;0.28;;;;;;;13.38;100.00;99279.66;7394948;19;20116;-87
2023/12/23 08:23:16;;;;;;;0.80;0.50;;;;;;;13.36;100.00;99281.44;7377890;19;20017;-86
2023/12/23 08:25:43;;;;;;;0.95;0.15;;;;;;;13.35;100.00;99272.28;7397741;19;20014;-86
2023/12/23 08:28:10;;;;;;;0.10;0.10;;;;;;;13.38;100.00;99282.44;7398077;19;20002;-87
2023/12/23 08:30:37;;;;;;;4.88;0.10;;;;;;;13.50;100.00;99277.63;7396892;19;20049;-87
2023/12/23 08:33:03;;;;;;;0.10;0.03;;;;;;;13.51;100.00;99291.09;7396573;19;20010;-87
2023/12/23 08:35:29;;;;;;;0.25;0.15;;;;;;;13.96;100.00;99269.41;7396097;19;20014;-87
2023/12/23 08:37:55;;;;;;;0.10;0.00;;;;;;;14.15;100.00;99294.81;7396486;19;20002;-89
2023/12/23 08:40:22;;;;;;;0.10;0.00;;;;;;;13.56;100.00;99292.34;7395506;19;20011;-87
2023/12/23 08:42:48;;;;;;;0.10;0.10;;;;;;;14.00;100.00;99285.94;7396612;19;20013;-85
2023/12/23 08:45:14;;;;;;;0.10;0.10;;;;;;;14.27;100.00;99296.31;7397406;19;20026;-86
2023/12/23 08:47:40;;;;;;;0.13;0.13;;;;;;;14.43;100.00;99313.09;7405061;19;20010;-85
2023/12/23 08:50:06;;;;;;;0.10;0.10;;;;;;;14.07;100.00;99319.78;7406656;19;20086;-85
2023/12/23 08:52:32;;;;;;;0.00;0.00;;;;;;;14.30;100.00;99328.91;7399115;19;20019;-85
2023/12/23 08:54:58;;;;;;;0.60;0.25;;;;;;;14.29;100.00;99325.34;7398744;19;20066;-85
2023/12/23 08:57:25;;;;;;;0.10;0.00;;;;;;;14.35;100.00;99330.94;7398725;19;20011;-85
2023/12/23 08:59:51;;;;;;;0.00;0.00;;;;;;;14.32;100.00;99323.56;7394898;19;20114;-86
2023/12/23 09:02:17;;;;;;;0.10;0.10;;;;;;;14.26;100.00;99336.78;7395276;19;20011;-86
2023/12/23 09:04:43;;;;;;;0.22;0.10;;;;;;;14.23;100.00;99335.00;7393471;19;20009;-86
2023/12/23 09:07:09;;;;;;;0.30;0.10;;;;;;;14.31;100.00;99334.00;7395820;19;20016;-87
2023/12/23 09:09:35;;;;;;;0.90;0.63;;;;;;;14.33;100.00;99320.25;7395229;19;20006;-86
2023/12/23 09:12:02;;;;;;;0.10;0.00;;;;;;;14.34;100.00;99329.41;7394851;19;20007;-87
2023/12/23 09:14:29;;;;;;;1.13;0.50;;;;;;;14.32;100.00;99335.53;7393673;19;20022;-87
2023/12/23 09:16:55;;;;;;;0.00;0.00;;;;;;;14.41;100.00;99326.84;7395833;19;19998;-87
2023/12/23 09:19:22;;;;;;;0.25;0.25;;;;;;;14.44;100.00;99336.25;7394130;19;20006;-86
2023/12/23 09:21:48;;;;;;;0.10;0.10;;;;;;;14.45;100.00;99337.78;7395581;19;20080;-88
2023/12/23 09:24:14;;;;;;;0.22;0.20;;;;;;;14.41;100.00;99334.47;7394384;19;20007;-88
2023/12/23 09:26:41;;;;;;;0.75;0.10;;;;;;;14.42;100.00;99344.41;7394768;19;20414;-88
2023/12/23 09:29:08;;;;;;;0.85;0.40;;;;;;;14.46;100.00;99349.75;7395642;19;20003;-88
2023/12/23 09:31:34;;;;;;;0.10;0.00;;;;;;;14.45;100.00;99354.59;7393395;19;20465;-89
2023/12/23 09:34:00;;;;;;;0.10;0.00;;;;;;;14.43;100.00;99345.94;7394307;19;20090;-88
2023/12/23 09:36:26;;;;;;;0.30;0.10;;;;;;;14.50;100.00;99351.00;7391776;19;20015;-90
2023/12/23 09:38:52;;;;;;;0.30;0.10;;;;;;;14.52;100.00;99354.06;7392162;19;20029;-84
2023/12/23 09:41:18;;;;;;;0.10;0.00;;;;;;;14.51;100.00;99352.53;7390223;19;20186;-84
2023/12/23 09:43:45;;;;;;;0.10;0.10;;;;;;;14.50;100.00;99356.63;7393400;19;20007;-87
2023/12/23 09:46:16;;;;;;;0.10;0.00;;;;;;;14.50;100.00;99344.63;7390242;19;20014;-91
2023/12/23 09:48:42;;;;;;;0.10;0.10;;;;;;;14.22;100.00;99341.91;7391297;19;20094;-91
2023/12/23 09:51:09;;;;;;;0.10;0.10;;;;;;;14.39;100.00;99346.22;7394682;19;20653;-85
2023/12/23 09:53:39;;;;;;;1.05;0.32;;;;;;;14.43;100.00;99343.91;7391375;19;20003;-86
2023/12/23 09:56:07;;;;;;;6.30;0.43;;;;;;;14.37;100.00;99348.75;7393426;19;20031;-85
2023/12/23 09:58:34;;;;;;;0.10;0.10;;;;;;;14.37;100.00;99348.00;7391849;19;20015;-85
2023/12/23 10:01:00;;;;;;;0.10;0.10;;;;;;;14.37;100.00;99353.59;7394055;19;20010;-85
2023/12/23 10:03:28;;;;;;;0.20;0.20;;;;;;;14.38;100.00;99343.91;7391455;19;20027;-85
2023/12/23 10:06:01;;;;;;;0.10;0.00;;;;;;;14.42;100.00;99355.63;7393734;19;20010;-85
2023/12/23 10:08:30;;;;;;;0.10;0.00;;;;;;;14.44;100.00;99353.06;7391505;19;20018;-84
2023/12/23 10:10:56;;;;;;;0.00;0.00;;;;;;;14.43;100.00;99355.09;7392848;19;20044;-85
2023/12/23 10:13:22;;;;;;;2.70;2.15;;;;;;;14.45;100.00;99360.19;7393499;19;20017;-91
2023/12/23 10:15:49;;;;;;;0.70;0.30;;;;;;;14.48;100.00;99359.16;7393078;19;20006;-88
2023/12/23 10:18:15;;;;;;;3.80;0.30;;;;;;;14.48;100.00;99361.19;7391488;19;20003;-85
2023/12/23 10:20:42;;;;;;;1.05;0.22;;;;;;;14.49;100.00;99354.34;7392395;19;20036;-87
2023/12/23 10:23:09;;;;;;;11.85;0.55;;;;;;;14.50;100.00;99367.81;7396822;19;20014;-84
2023/12/23 10:25:35;;;;;;;0.10;0.10;;;;;;;14.53;100.00;99366.03;7391655;19;20018;-84
2023/12/23 10:28:04;;;;;;;0.40;0.10;;;;;;;14.51;100.00;99368.59;7392151;19;20007;-83
2023/12/23 10:30:33;;;;;;;0.60;0.60;;;;;;;14.45;100.00;99371.41;7390690;19;20401;-84
2023/12/23 10:33:05;;;;;;;1.38;0.68;;;;;;;14.36;100.00;99361.22;7392773;19;20010;-82
2023/12/23 10:35:41;;;;;;;2.65;0.30;;;;;;;14.43;100.00;99365.53;7391528;19;20055;-84
2023/12/23 10:38:10;;;;;;;0.90;0.22;;;;;;;14.50;100.00;99367.81;7393310;19;20058;-84
2023/12/23 10:40:36;;;;;;;0.20;0.20;;;;;;;14.55;100.00;99364.25;7391707;19;20016;-90
2023/12/23 10:43:03;;;;;;;0.40;0.32;;;;;;;14.11;100.00;99365.09;7392098;19;20014;-84
2023/12/23 10:45:31;;;;;;;0.10;0.10;;;;;;;14.55;100.00;99364.25;7398708;19;20034;-83
2023/12/23 10:48:00;;;;;;;4.13;1.17;;;;;;;14.63;100.00;99370.84;7402550;19;20011;-84
2023/12/23 10:50:28;;;;;;;3.30;1.33;;;;;;;14.38;100.00;99360.72;7399667;19;20019;-84
2023/12/23 10:52:57;;;;;;;1.60;0.30;;;;;;;14.50;100.00;99362.22;7391938;19;20006;-83
2023/12/23 10:55:24;;;;;;;1.40;0.68;;;;;;;14.66;100.00;99361.38;7391728;19;20010;-83
2023/12/23 10:57:51;;;;;;;0.75;0.43;;;;;;;14.56;100.00;99359.38;7392802;19;20011;-84
2023/12/23 11:00:17;;;;;;;1.67;0.30;;;;;;;14.69;100.00;99363.16;7391391;19;20029;-82
2023/12/23 11:02:48;;;;;;;2.35;0.35;;;;;;;14.73;100.00;99358.03;7391060;19;20037;-84
2023/12/23 11:05:16;;;;;;;0.10;0.10;;;;;;;14.76;100.00;99362.63;7391716;19;20456;-84
2023/12/23 11:07:46;;;;;;;4.35;0.32;;;;;;;14.80;100.00;99349.09;7391971;19;20409;-84
2023/12/23 11:10:14;;;;;;;0.38;0.28;;;;;;;14.70;100.00;99349.91;7387379;19;19998;-84
2023/12/23 11:12:43;;;;;;;0.30;0.30;;;;;;;14.83;100.00;99341.72;7386884;19;20006;-86
2023/12/23 11:15:09;;;;;;;1.27;0.20;;;;;;;14.88;100.00;99341.66;7387325;19;20025;-85
2023/12/23 11:17:42;;;;;;;1.02;0.50;;;;;;;14.99;100.00;99338.03;7385886;19;20024;-86
2023/12/23 11:20:37;;;;;;;0.43;0.25;;;;;;;15.18;100.00;99322.88;7388701;19;20549;-85
2023/12/23 11:23:28;;;;;;;1.85;0.43;;;;;;;15.36;100.00;99334.75;7389379;19;20002;-85